createdAt,value
2022-10-08T00:35:28.001Z,14.84
2022-10-08T00:39:31.566Z,14.85
2022-10-08T00:43:43.062Z,14.87
2022-10-08T00:47:48.313Z,14.89
2022-10-08T00:51:55.971Z,14.91
2022-10-08T00:55:59.483Z,14.95
2022-10-08T01:00:04.879Z,14.96
2022-10-08T01:04:09.518Z,14.97
2022-10-08T01:08:21.348Z,14.99
2022-10-08T01:12:38.546Z,15.01
2022-10-08T01:16:52.477Z,15.03
2022-10-08T01:21:05.429Z,15.03
2022-10-08T01:25:35.266Z,15.07
2022-10-08T01:29:44.841Z,15.04
2022-10-08T01:33:55.331Z,15.03
2022-10-08T01:38:06.360Z,14.95
2022-10-08T01:42:12.176Z,15.00
2022-10-08T01:46:21.813Z,14.99
2022-10-08T01:50:29.103Z,14.96
2022-10-08T01:54:35.355Z,15.02
2022-10-08T01:58:47.983Z,15.04
2022-10-08T02:02:55.227Z,15.02
2022-10-08T02:07:01.005Z,15.01
2022-10-08T02:11:04.670Z,14.99
2022-10-08T02:15:09.993Z,14.98
2022-10-08T02:19:26.630Z,14.98
2022-10-08T02:23:33.718Z,14.93
2022-10-08T02:27:50.010Z,14.96
2022-10-08T02:31:58.511Z,14.91
2022-10-08T02:36:08.265Z,14.98
2022-10-08T02:40:14.605Z,14.96
2022-10-08T02:44:23.113Z,15.00
2022-10-08T02:48:31.833Z,15.00
2022-10-08T02:52:41.542Z,15.01
2022-10-08T02:56:49.853Z,15.00
2022-10-08T03:00:55.898Z,15.01
2022-10-08T03:05:04.177Z,15.03
2022-10-08T03:09:13.932Z,15.05
2022-10-08T03:13:18.952Z,15.05
2022-10-08T03:17:26.976Z,15.07
2022-10-08T03:21:30.233Z,15.07
2022-10-08T03:25:35.061Z,15.08
2022-10-08T03:29:38.545Z,15.07
2022-10-08T03:33:42.009Z,15.10
2022-10-08T03:37:44.976Z,15.10
2022-10-08T03:41:49.856Z,15.10
2022-10-08T03:45:54.333Z,15.10
2022-10-08T03:49:57.800Z,15.08
2022-10-08T03:54:01.232Z,15.06
2022-10-08T03:58:05.685Z,15.07
2022-10-08T04:02:08.832Z,15.01
2022-10-08T04:06:13.342Z,15.04
2022-10-08T04:10:17.153Z,15.05
2022-10-08T04:14:21.868Z,15.07
2022-10-08T04:18:24.789Z,15.06
2022-10-08T04:22:27.798Z,15.00
2022-10-08T04:26:31.355Z,15.06
2022-10-08T04:30:36.141Z,15.06
2022-10-08T04:34:39.228Z,15.06
2022-10-08T04:38:44.170Z,15.06
2022-10-08T04:42:52.525Z,15.05
2022-10-08T04:46:57.293Z,15.00
2022-10-08T04:51:04.880Z,14.98
2022-10-08T04:55:11.403Z,14.98
2022-10-08T04:59:14.411Z,14.98
2022-10-08T05:03:19.456Z,14.96
2022-10-08T05:07:22.925Z,14.95
2022-10-08T05:11:27.844Z,14.96
2022-10-08T05:15:31.775Z,14.94
2022-10-08T05:19:36.874Z,14.94
2022-10-08T05:23:41.220Z,14.93
2022-10-08T05:27:44.821Z,14.94
2022-10-08T05:31:47.936Z,14.94
2022-10-08T05:35:52.365Z,14.99
2022-10-08T05:39:55.802Z,14.97
2022-10-08T05:44:02.022Z,14.96
2022-10-08T05:48:05.791Z,14.96
2022-10-08T05:52:10.279Z,14.96
2022-10-08T05:56:15.159Z,14.97
2022-10-08T06:00:18.259Z,15.04
2022-10-08T06:04:21.935Z,15.03
2022-10-08T06:08:26.543Z,15.08
2022-10-08T06:12:30.025Z,15.05
2022-10-08T06:16:33.035Z,15.05
2022-10-08T06:20:38.189Z,15.09
2022-10-08T06:24:42.956Z,15.15
2022-10-08T06:28:46.728Z,15.21
2022-10-08T06:32:50.519Z,15.23
2022-10-08T06:36:55.172Z,15.26
2022-10-08T06:41:00.311Z,15.36
2022-10-08T06:45:03.729Z,15.43
2022-10-08T06:49:07.251Z,15.49
2022-10-08T06:53:12.484Z,15.61
2022-10-08T06:57:17.542Z,15.69
2022-10-08T07:01:22.942Z,15.86
2022-10-08T07:05:26.251Z,16.00
2022-10-08T07:09:29.297Z,16.15
2022-10-08T07:13:34.621Z,16.29
2022-10-08T07:17:38.691Z,16.42
2022-10-08T07:21:41.683Z,16.52
2022-10-08T07:25:45.007Z,16.62
2022-10-08T07:29:49.936Z,16.74
2022-10-08T07:33:54.175Z,16.85
2022-10-08T07:42:06.996Z,17.10
2022-10-08T07:46:13.210Z,17.23
2022-10-08T07:50:17.058Z,17.31
2022-10-08T07:54:21.134Z,17.40
2022-10-08T07:58:24.607Z,17.43
2022-10-08T08:02:29.096Z,17.44
2022-10-08T08:06:34.825Z,17.43
2022-10-08T08:10:37.849Z,17.45
2022-10-08T08:14:41.346Z,17.48
2022-10-08T08:18:47.784Z,17.62
2022-10-08T08:22:50.832Z,17.77
2022-10-08T08:26:57.585Z,17.84
2022-10-08T08:31:09.147Z,18.10
2022-10-08T08:35:13.878Z,18.28
2022-10-08T08:39:18.871Z,18.48
2022-10-08T08:43:22.696Z,18.70
2022-10-08T08:47:30.987Z,18.90
2022-10-08T08:51:36.312Z,19.11
2022-10-08T08:55:42.690Z,19.26
2022-10-08T08:59:48.297Z,19.41
2022-10-08T09:03:54.067Z,19.51
2022-10-08T09:08:05.465Z,19.57
2022-10-08T09:12:20.834Z,19.60
2022-10-08T09:16:25.439Z,19.60
2022-10-08T09:20:29.240Z,19.65
2022-10-08T09:24:35.733Z,19.72
2022-10-08T09:28:41.395Z,19.79
2022-10-08T09:32:45.177Z,19.86
2022-10-08T09:36:51.782Z,19.90
2022-10-08T09:41:05.218Z,20.01
2022-10-08T09:45:32.818Z,20.08
2022-10-08T09:49:38.892Z,20.14
2022-10-08T09:53:45.468Z,20.20
2022-10-08T09:57:54.583Z,20.26
2022-10-08T10:02:00.670Z,20.38
2022-10-08T10:06:04.438Z,20.47
2022-10-08T10:10:17.970Z,20.54
2022-10-08T10:14:29.702Z,20.64
2022-10-08T10:18:36.970Z,20.72
2022-10-08T10:22:51.279Z,20.93
2022-10-08T10:26:58.130Z,21.19
2022-10-08T10:31:07.283Z,21.45
2022-10-08T10:35:17.114Z,21.77
2022-10-08T10:39:32.204Z,22.09
2022-10-08T10:43:44.143Z,22.40
2022-10-08T10:47:51.081Z,22.65
2022-10-08T10:52:05.120Z,22.80
2022-10-08T10:56:15.447Z,22.86
2022-10-08T11:00:23.530Z,22.84
2022-10-08T11:04:44.847Z,22.85
2022-10-08T11:08:54.463Z,22.95
2022-10-08T11:13:07.017Z,23.09
2022-10-08T11:17:27.594Z,23.30
2022-10-08T11:21:46.342Z,23.56
2022-10-08T11:26:19.081Z,23.73
2022-10-08T11:30:38.645Z,23.90
2022-10-08T11:34:49.635Z,24.07
2022-10-08T11:39:03.150Z,24.22
2022-10-08T11:43:10.807Z,24.38
2022-10-08T11:47:37.682Z,24.59
2022-10-08T11:51:42.018Z,24.77
2022-10-08T11:55:54.199Z,24.87
2022-10-08T12:00:06.912Z,24.87
2022-10-08T12:04:21.458Z,24.76
2022-10-08T12:08:51.889Z,24.64
2022-10-08T12:13:26.140Z,24.47
2022-10-08T12:17:53.586Z,24.25
2022-10-08T12:21:56.950Z,23.99
2022-10-08T12:26:14.181Z,23.76
2022-10-08T12:30:19.322Z,23.61
2022-10-08T12:34:24.007Z,23.55
2022-10-08T12:38:37.565Z,23.59
2022-10-08T12:42:42.354Z,23.63
2022-10-08T12:46:57.955Z,23.76
2022-10-08T12:51:14.883Z,23.88
2022-10-08T12:55:21.970Z,23.96
2022-10-08T12:59:27.939Z,24.04
2022-10-08T13:03:32.394Z,24.15
2022-10-08T13:07:37.088Z,24.26
2022-10-08T13:11:40.593Z,24.44
2022-10-08T13:15:44.042Z,24.63
2022-10-08T13:19:49.067Z,24.84
2022-10-08T13:23:52.654Z,25.04
2022-10-08T13:28:10.438Z,25.23
2022-10-08T13:32:21.845Z,25.26
2022-10-08T13:58:27.572Z,24.47
2022-10-08T14:02:33.931Z,24.38
2022-10-08T14:06:38.470Z,24.30
2022-10-08T14:10:43.479Z,24.22
2022-10-08T14:14:46.977Z,24.16
2022-10-08T14:18:51.869Z,24.13
2022-10-08T14:22:55.521Z,24.09
2022-10-08T14:26:58.508Z,24.08
2022-10-08T14:31:01.532Z,24.03
2022-10-08T14:35:08.549Z,23.96
2022-10-08T14:39:11.658Z,23.82
2022-10-08T14:43:15.155Z,23.74
2022-10-08T14:47:18.613Z,23.69
2022-10-08T14:51:23.001Z,23.63
2022-10-08T14:55:26.520Z,23.53
2022-10-08T14:59:30.034Z,23.33
2022-10-08T15:03:34.286Z,23.12
2022-10-08T15:07:38.986Z,22.91
2022-10-08T15:11:42.640Z,22.70
2022-10-08T15:15:46.635Z,22.49
2022-10-08T15:19:50.112Z,22.31
2022-10-08T15:23:56.725Z,22.17
2022-10-08T15:28:00.196Z,22.04
2022-10-08T15:32:03.704Z,21.93
2022-10-08T15:36:17.714Z,21.82
2022-10-08T15:40:22.224Z,21.71
2022-10-08T15:44:29.601Z,21.59
2022-10-08T15:48:33.020Z,21.45
2022-10-08T15:52:36.394Z,21.31
2022-10-08T15:56:41.154Z,21.20
2022-10-08T16:00:44.889Z,21.12
2022-10-08T16:04:48.925Z,21.02
2022-10-08T16:08:52.349Z,20.95
2022-10-08T16:12:56.726Z,20.87
2022-10-08T16:17:00.467Z,20.77
2022-10-08T16:21:05.150Z,20.67
2022-10-08T16:25:09.118Z,20.55
2022-10-08T16:29:15.327Z,20.41
2022-10-08T16:33:19.762Z,20.28
2022-10-08T16:37:23.000Z,20.15
2022-10-08T16:41:27.380Z,20.04
2022-10-08T16:45:36.243Z,19.92
2022-10-08T16:49:40.337Z,19.82
2022-10-08T16:53:48.360Z,19.74
2022-10-08T16:57:51.808Z,19.65
2022-10-08T17:06:24.580Z,19.52
2022-10-08T17:10:31.159Z,19.48
2022-10-08T17:14:34.580Z,19.45
2022-10-08T17:18:39.730Z,19.43
2022-10-08T17:22:42.782Z,19.38
2022-10-08T17:26:45.838Z,19.35
2022-10-08T17:30:49.108Z,19.32
2022-10-08T17:34:54.379Z,19.29
2022-10-08T17:38:59.176Z,19.27
2022-10-08T17:43:02.702Z,19.25
2022-10-08T17:47:06.488Z,19.23
2022-10-08T17:51:13.120Z,19.21
2022-10-08T17:55:17.146Z,19.16
2022-10-08T17:59:23.085Z,19.12
2022-10-08T18:03:26.649Z,19.08
2022-10-08T18:07:32.838Z,19.05
2022-10-08T18:11:39.199Z,19.01
2022-10-08T18:15:43.131Z,18.96
2022-10-08T18:19:46.594Z,18.92
2022-10-08T18:23:51.730Z,18.87
2022-10-08T18:27:57.226Z,18.80
2022-10-08T18:32:00.748Z,18.72
2022-10-08T18:36:12.231Z,18.65
2022-10-08T18:40:17.336Z,18.58
2022-10-08T18:44:22.288Z,18.53
2022-10-08T18:48:25.736Z,18.51
2022-10-08T18:52:29.176Z,18.48
2022-10-08T18:56:39.114Z,18.48
2022-10-08T19:00:44.048Z,18.47
2022-10-08T19:04:47.039Z,18.48
2022-10-08T19:08:51.334Z,18.45
2022-10-08T19:12:55.906Z,18.44
2022-10-08T19:17:00.759Z,18.43
2022-10-08T19:21:09.179Z,18.40
2022-10-08T19:25:12.670Z,18.37
2022-10-08T19:29:19.499Z,18.33
2022-10-08T19:33:23.167Z,18.26
2022-10-08T19:37:26.840Z,18.23
2022-10-08T19:41:31.391Z,18.20
2022-10-08T19:45:36.833Z,18.16
2022-10-08T19:49:40.343Z,18.11
2022-10-08T19:53:43.681Z,18.06
2022-10-08T19:57:47.014Z,18.03
2022-10-08T20:01:51.968Z,17.95
2022-10-08T20:05:54.991Z,17.95
2022-10-08T20:09:59.017Z,17.89
2022-10-08T20:14:02.873Z,17.92
2022-10-08T20:18:08.499Z,17.91
2022-10-08T20:22:12.159Z,17.89
2022-10-08T20:26:17.847Z,17.85
2022-10-08T20:30:21.556Z,17.83
2022-10-08T20:34:31.763Z,17.81
2022-10-08T20:38:35.795Z,17.77
2022-10-08T20:42:40.634Z,17.77
2022-10-08T20:46:46.594Z,17.74
2022-10-08T20:50:55.238Z,17.71
2022-10-08T20:55:01.278Z,17.69
2022-10-08T20:59:06.273Z,17.67
2022-10-08T21:03:10.468Z,17.63
2022-10-08T21:07:15.028Z,17.56
2022-10-08T21:11:20.353Z,17.60
2022-10-08T21:15:23.849Z,17.57
2022-10-08T21:19:27.161Z,17.59
2022-10-08T21:23:32.061Z,17.60
2022-10-08T21:27:35.249Z,17.58
2022-10-08T21:31:40.402Z,17.56
2022-10-08T21:35:44.100Z,17.55
2022-10-08T21:39:49.290Z,17.54
2022-10-08T21:43:54.672Z,17.49
2022-10-08T21:47:57.805Z,17.45
2022-10-08T21:52:02.202Z,17.47
2022-10-08T21:56:09.845Z,17.49
2022-10-08T22:00:14.674Z,17.48
2022-10-08T22:04:19.865Z,17.47
2022-10-08T22:08:24.531Z,17.45
2022-10-08T22:12:31.280Z,17.44
2022-10-08T22:16:34.843Z,17.41
2022-10-08T22:20:38.418Z,17.39
2022-10-08T22:24:41.480Z,17.38
2022-10-08T22:28:46.934Z,17.35
2022-10-08T22:32:50.937Z,17.34
2022-10-08T22:36:54.586Z,17.33
2022-10-08T22:41:03.156Z,17.32
2022-10-08T22:45:10.338Z,17.29
2022-10-08T22:49:13.493Z,17.27
2022-10-08T22:53:17.648Z,17.23
2022-10-08T22:57:21.204Z,17.21
2022-10-08T23:01:27.791Z,17.20
2022-10-08T23:05:30.964Z,17.19
2022-10-08T23:09:34.081Z,17.17
2022-10-08T23:13:37.772Z,17.17
2022-10-08T23:17:42.459Z,17.17
2022-10-08T23:21:45.975Z,17.15
2022-10-08T23:26:00.393Z,17.13
2022-10-08T23:30:04.464Z,17.10
2022-10-08T23:34:10.166Z,17.08
2022-10-08T23:38:14.795Z,17.06
2022-10-08T23:42:18.376Z,16.99
2022-10-08T23:46:24.030Z,17.02
2022-10-08T23:50:28.965Z,17.00
2022-10-08T23:54:32.452Z,16.88
2022-10-08T23:58:35.950Z,16.94
